Time;durP1;ratioP1;P1;durP2;ratioP2;P2;SDS_P1;SDS_P2;PMS_P1;PMS_P2;Temp;Humidity;BMP_temperature;BMP_pressure;BME280_temperature;BME280_humidity;BME280_pressure;Samples;Min_cycle;Max_cycle;Signal;HPM_P1;HPM_P2
2023/04/22 00:02:15;;;;;;;33.03;30.60;;;;;;;-142.25;100.00;58004.16;4918023;29;20617;-64
2023/04/22 00:04:42;;;;;;;20.57;18.90;;;;;;;-142.25;100.00;58004.16;4921766;29;20048;-64
2023/04/22 00:07:08;;;;;;;20.20;18.57;;;;;;;-142.25;100.00;58004.16;4911961;29;20684;-65
2023/04/22 00:09:34;;;;;;;22.43;20.70;;;;;;;-142.25;100.00;58004.16;4913616;29;20299;-65
2023/04/22 00:12:01;;;;;;;22.43;20.80;;;;;;;-142.25;100.00;58004.16;4914864;29;20300;-64
2023/04/22 00:14:27;;;;;;;25.83;23.97;;;;;;;-142.25;100.00;58004.16;4914733;29;20779;-65
2023/04/22 00:16:52;;;;;;;25.63;23.87;;;;;;;-142.25;100.00;58004.16;4912616;29;20311;-65
2023/04/22 00:19:18;;;;;;;26.07;24.23;;;;;;;-142.25;100.00;58004.16;4927452;29;20047;-65
2023/04/22 00:21:44;;;;;;;20.70;19.27;;;;;;;-142.25;100.00;58004.16;4913190;29;20090;-64
2023/04/22 00:24:09;;;;;;;50.33;46.27;;;;;;;-142.25;100.00;58004.16;4913330;29;20460;-65
2023/04/22 00:26:35;;;;;;;106.00;99.87;;;;;;;-142.25;100.00;58004.16;4913148;29;20464;-65
2023/04/22 00:29:01;;;;;;;25.77;23.63;;;;;;;-142.25;100.00;58004.16;4925881;29;20055;-65
2023/04/22 00:31:26;;;;;;;19.43;17.83;;;;;;;-142.25;100.00;58004.16;4927384;29;20082;-65
2023/04/22 00:33:52;;;;;;;19.83;18.30;;;;;;;-142.25;100.00;58004.16;4915903;29;20510;-65
2023/04/22 00:36:17;;;;;;;19.73;18.10;;;;;;;-142.25;100.00;58004.16;4913781;29;20491;-65
2023/04/22 00:38:51;;;;;;;23.97;22.03;;;;;;;-142.25;100.00;58004.16;4912091;29;20048;-64
2023/04/22 00:41:17;;;;;;;22.87;21.13;;;;;;;-142.25;100.00;58004.16;4912296;28;20325;-65
2023/04/22 00:43:44;;;;;;;21.60;19.97;;;;;;;-142.25;100.00;58004.16;4912556;29;20343;-65
2023/04/22 00:46:10;;;;;;;23.70;21.93;;;;;;;-142.25;100.00;58004.16;4912772;29;20617;-65
2023/04/22 00:48:39;;;;;;;27.03;24.87;;;;;;;-142.25;100.00;58004.16;4912295;29;20370;-65
2023/04/22 00:51:05;;;;;;;19.27;17.70;;;;;;;-142.25;100.00;58004.16;4928540;29;20128;-64
2023/04/22 00:53:31;;;;;;;19.13;17.77;;;;;;;-142.25;100.00;58004.16;4914043;29;20287;-64
2023/04/22 00:55:57;;;;;;;20.83;19.43;;;;;;;-142.25;100.00;58004.16;4914070;29;20291;-65
2023/04/22 00:58:27;;;;;;;24.03;22.33;;;;;;;-142.25;100.00;58004.16;4914856;29;20064;-64
2023/04/22 01:00:53;;;;;;;23.03;21.40;;;;;;;-142.25;100.00;58004.16;4914786;29;20387;-65
2023/04/22 01:03:20;;;;;;;19.63;18.17;;;;;;;-142.25;100.00;58004.16;4912360;29;20292;-65
2023/04/22 01:05:48;;;;;;;20.07;18.60;;;;;;;-142.25;100.00;58004.16;4913651;29;20092;-64
2023/04/22 01:08:13;;;;;;;21.87;20.30;;;;;;;-142.25;100.00;58004.16;4912244;29;20287;-65
2023/04/22 01:10:41;;;;;;;21.33;19.73;;;;;;;-142.25;100.00;58004.16;4912025;29;20300;-65
2023/04/22 01:13:07;;;;;;;19.00;17.50;;;;;;;-142.25;100.00;58004.16;4914173;29;20299;-65
2023/04/22 01:15:33;;;;;;;23.77;22.13;;;;;;;-142.25;100.00;58004.16;4910670;29;20315;-64
2023/04/22 01:18:00;;;;;;;22.17;20.43;;;;;;;-142.25;100.00;58004.16;4909539;29;21269;-64
2023/04/22 01:20:28;;;;;;;20.60;19.17;;;;;;;-142.25;100.00;58004.16;4913766;29;20043;-65
2023/04/22 01:22:56;;;;;;;20.80;19.35;;;;;;;-142.25;100.00;58004.16;4913192;29;20300;-64
2023/04/22 01:25:26;;;;;;;27.30;25.30;;;;;;;-142.25;100.00;58004.16;4911651;29;20504;-65
2023/04/22 01:27:52;;;;;;;22.77;21.10;;;;;;;-142.25;100.00;58004.16;4911318;29;20110;-65
2023/04/22 01:30:18;;;;;;;48.33;45.17;;;;;;;-142.25;100.00;58004.16;4912298;29;20113;-64
2023/04/22 01:32:44;;;;;;;19.00;17.73;;;;;;;-142.25;100.00;58004.16;4912883;29;20561;-64
2023/04/22 01:35:10;;;;;;;168.07;154.47;;;;;;;-142.25;100.00;58004.16;4913000;29;20043;-64
2023/04/22 01:37:36;;;;;;;137.48;128.23;;;;;;;-142.25;100.00;58004.16;4912146;29;20303;-65
2023/04/22 01:40:03;;;;;;;19.40;17.97;;;;;;;-142.25;100.00;58004.16;4911667;29;20154;-64
2023/04/22 01:42:30;;;;;;;34.20;31.75;;;;;;;-142.25;100.00;58004.16;4926474;29;20320;-65
2023/04/22 01:44:55;;;;;;;20.25;19.02;;;;;;;-142.25;100.00;58004.16;4927094;29;20047;-65
2023/04/22 01:47:21;;;;;;;29.57;27.83;;;;;;;-142.25;100.00;58004.16;4911745;29;20067;-65
2023/04/22 01:49:47;;;;;;;19.50;18.10;;;;;;;-142.25;100.00;58004.16;4926190;29;20135;-64
2023/04/22 01:52:13;;;;;;;17.67;16.37;;;;;;;-142.25;100.00;58004.16;4926737;29;20044;-64
2023/04/22 01:54:39;;;;;;;20.35;18.80;;;;;;;-142.25;100.00;58004.16;4926084;29;20044;-64
2023/04/22 01:57:12;;;;;;;23.50;21.77;;;;;;;-142.25;100.00;58004.16;4912471;29;20135;-65
2023/04/22 01:59:40;;;;;;;27.23;25.33;;;;;;;-142.25;100.00;58004.16;4912539;29;20055;-64
2023/04/22 02:02:06;;;;;;;20.27;18.70;;;;;;;-142.25;100.00;58004.16;4930381;29;20052;-65
2023/04/22 02:04:32;;;;;;;22.23;20.70;;;;;;;-142.25;100.00;58004.16;4929479;29;20865;-64
2023/04/22 02:06:58;;;;;;;26.37;24.43;;;;;;;-142.25;100.00;58004.16;4922261;29;20056;-65
2023/04/22 02:09:24;;;;;;;23.60;21.83;;;;;;;-142.25;100.00;58004.16;4910200;28;20778;-65
2023/04/22 02:11:50;;;;;;;49.93;45.67;;;;;;;-142.25;100.00;58004.16;4911822;29;20124;-66
2023/04/22 02:14:19;;;;;;;258.27;242.43;;;;;;;-142.25;100.00;58004.16;4930864;28;20044;-66
2023/04/22 02:16:45;;;;;;;94.53;86.63;;;;;;;-142.25;100.00;58004.16;4915660;29;20044;-65
2023/04/22 02:19:10;;;;;;;33.70;31.27;;;;;;;-142.25;100.00;58004.16;4931712;29;20050;-64
2023/04/22 02:21:36;;;;;;;62.23;57.13;;;;;;;-142.25;100.00;58004.16;4914441;29;20166;-65
2023/04/22 02:24:02;;;;;;;18.93;17.63;;;;;;;-142.25;100.00;58004.16;4916069;29;20551;-65
2023/04/22 02:26:29;;;;;;;27.63;25.47;;;;;;;-142.25;100.00;58004.16;4915026;29;20050;-65
2023/04/22 02:28:55;;;;;;;35.57;29.83;;;;;;;-142.25;100.00;58004.16;4917231;29;20101;-65
2023/04/22 02:31:21;;;;;;;185.57;170.55;;;;;;;-142.25;100.00;58004.16;4918578;29;20426;-65
2023/04/22 02:33:50;;;;;;;16.80;15.73;;;;;;;-142.25;100.00;58004.16;4926199;29;20122;-66
2023/04/22 02:36:16;;;;;;;37.20;34.25;;;;;;;-142.25;100.00;58004.16;4934938;29;20046;-65
2023/04/22 02:38:41;;;;;;;28.23;26.00;;;;;;;-142.25;100.00;58004.16;4915863;29;20511;-65
2023/04/22 02:41:07;;;;;;;22.33;20.90;;;;;;;-142.25;100.00;58004.16;4928377;29;20055;-65
2023/04/22 02:43:34;;;;;;;18.38;17.27;;;;;;;-142.25;100.00;58004.16;4929423;29;20111;-65
2023/04/22 02:46:00;;;;;;;19.03;17.87;;;;;;;-142.25;100.00;58004.16;4914453;29;20056;-63
2023/04/22 02:48:25;;;;;;;20.17;18.83;;;;;;;-142.25;100.00;58004.16;4914752;29;20051;-68
2023/04/22 02:50:51;;;;;;;23.30;21.83;;;;;;;-142.25;100.00;58004.16;4929366;29;20452;-67
2023/04/22 02:53:17;;;;;;;;;;;;;;;-142.25;100.00;58004.16;4923590;28;20033;-67
2023/04/22 02:55:42;;;;;;;40.20;36.90;;;;;;;-142.25;100.00;58004.16;4917044;29;20837;-67
2023/04/22 02:58:08;;;;;;;22.97;20.73;;;;;;;-142.25;100.00;58004.16;4912579;29;20064;-67
2023/04/22 03:00:34;;;;;;;18.27;16.73;;;;;;;-142.25;100.00;58004.16;4916710;29;20043;-68
2023/04/22 03:03:00;;;;;;;20.57;18.97;;;;;;;-142.25;100.00;58004.16;4913742;29;20381;-67
2023/04/22 03:05:32;;;;;;;21.00;19.33;;;;;;;-142.25;100.00;58004.16;4929377;29;20143;-67
2023/04/22 03:07:58;;;;;;;21.60;19.83;;;;;;;-142.25;100.00;58004.16;4927686;28;20748;-67
2023/04/22 03:10:26;;;;;;;23.53;21.70;;;;;;;-142.25;100.00;58004.16;4914098;29;20296;-67
2023/04/22 03:12:52;;;;;;;22.93;21.17;;;;;;;-142.25;100.00;58004.16;4912125;29;20288;-67
2023/04/22 03:15:19;;;;;;;19.60;17.97;;;;;;;-142.25;100.00;58004.16;4912224;29;20048;-67
2023/04/22 03:17:45;;;;;;;22.27;20.53;;;;;;;-142.25;100.00;58004.16;4914747;29;20870;-67
2023/04/22 03:20:12;;;;;;;18.97;17.40;;;;;;;-142.25;100.00;58004.16;4927023;28;20052;-68
2023/04/22 03:22:38;;;;;;;22.43;20.73;;;;;;;-142.25;100.00;58004.16;4929083;29;20357;-68
2023/04/22 03:25:06;;;;;;;24.33;22.23;;;;;;;-142.25;100.00;58004.16;4929829;28;20052;-68
2023/04/22 03:27:32;;;;;;;18.30;16.83;;;;;;;-142.25;100.00;58004.16;4930666;29;20850;-68
2023/04/22 03:29:58;;;;;;;26.43;24.40;;;;;;;-142.25;100.00;58004.16;4914530;29;20294;-66
2023/04/22 03:32:24;;;;;;;25.27;23.37;;;;;;;-142.25;100.00;58004.16;4908838;29;20288;-66
2023/04/22 03:35:01;;;;;;;20.33;18.77;;;;;;;-142.25;100.00;58004.16;4929578;29;20146;-66
2023/04/22 03:37:27;;;;;;;20.83;19.20;;;;;;;-142.25;100.00;58004.16;4928039;29;20331;-67
2023/04/22 03:39:54;;;;;;;18.77;17.33;;;;;;;-142.25;100.00;58004.16;4909817;29;20533;-66
2023/04/22 03:42:20;;;;;;;22.20;20.53;;;;;;;-142.25;100.00;58004.16;4913899;29;20386;-66
2023/04/22 03:44:45;;;;;;;20.87;19.27;;;;;;;-142.25;100.00;58004.16;4913490;29;20671;-65
2023/04/22 03:47:12;;;;;;;23.55;21.65;;;;;;;-142.25;100.00;58004.16;4917359;29;20044;-66
2023/04/22 03:49:44;;;;;;;22.50;20.77;;;;;;;-142.25;100.00;58004.16;4927182;28;20377;-65
2023/04/22 03:52:10;;;;;;;20.10;18.43;;;;;;;-142.25;100.00;58004.16;4927538;29;20815;-65
2023/04/22 03:54:40;;;;;;;23.77;22.02;;;;;;;-142.25;100.00;58004.16;4911294;29;20315;-66
2023/04/22 03:57:07;;;;;;;21.67;20.00;;;;;;;-142.25;100.00;58004.16;4925215;29;20422;-66
2023/04/22 03:59:34;;;;;;;18.60;17.13;;;;;;;-142.25;100.00;58004.16;4907982;29;20330;-68
2023/04/22 04:02:01;;;;;;;33.15;30.58;;;;;;;-142.25;100.00;58004.16;4918016;29;20334;-66
2023/04/22 04:04:28;;;;;;;40.42;37.05;;;;;;;-142.25;100.00;58004.16;4933254;29;20135;-66
2023/04/22 04:07:00;;;;;;;20.13;18.60;;;;;;;-142.25;100.00;58004.16;4935041;29;20079;-67
2023/04/22 04:09:27;;;;;;;16.25;14.98;;;;;;;-142.25;100.00;58004.16;4910264;29;20143;-67
2023/04/22 04:11:53;;;;;;;17.42;16.08;;;;;;;-142.25;100.00;58004.16;4921096;29;20095;-66
2023/04/22 04:14:20;;;;;;;17.88;16.50;;;;;;;-142.25;100.00;58004.16;4932838;28;20055;-66
2023/04/22 04:16:47;;;;;;;20.90;19.38;;;;;;;-142.25;100.00;58004.16;4913894;28;20083;-66
2023/04/22 04:19:21;;;;;;;19.80;18.35;;;;;;;-142.25;100.00;58004.16;4929341;29;20076;-69
2023/04/22 04:21:47;;;;;;;17.80;16.43;;;;;;;-142.25;100.00;58004.16;4918793;29;20095;-66
2023/04/22 04:24:13;;;;;;;25.80;23.80;;;;;;;-142.25;100.00;58004.16;4912907;29;20571;-66
2023/04/22 04:26:44;;;;;;;22.73;21.00;;;;;;;-142.25;100.00;58004.16;4928318;29;20363;-66
2023/04/22 04:29:20;;;;;;;22.37;20.67;;;;;;;-142.25;100.00;58004.16;4930593;29;20316;-66
2023/04/22 04:31:54;;;;;;;21.08;19.52;;;;;;;-142.25;100.00;58004.16;4915244;29;20309;-67
2023/04/22 04:34:24;;;;;;;20.98;19.35;;;;;;;-142.25;100.00;58004.16;4913738;29;20106;-67
2023/04/22 04:36:50;;;;;;;19.23;17.83;;;;;;;-142.25;100.00;58004.16;4914697;29;20048;-66
2023/04/22 04:39:21;;;;;;;18.60;17.23;;;;;;;-142.25;100.00;58004.16;4918347;29;20116;-65
2023/04/22 04:41:47;;;;;;;26.50;24.70;;;;;;;-142.25;100.00;58004.16;4913482;29;20539;-67
2023/04/22 04:44:15;;;;;;;28.10;26.10;;;;;;;-142.25;100.00;58004.16;4928555;29;20090;-68
2023/04/22 04:46:41;;;;;;;19.88;18.48;;;;;;;-142.25;100.00;58004.16;4913528;29;20567;-67
2023/04/22 04:49:11;;;;;;;21.33;19.80;;;;;;;-142.25;100.00;58004.16;4914555;29;20412;-66
2023/04/22 04:51:48;;;;;;;19.60;18.13;;;;;;;-142.25;100.00;58004.16;4927468;29;20032;-66
2023/04/22 04:54:15;;;;;;;39.83;36.60;;;;;;;-142.25;100.00;58004.16;4910229;29;20396;-66
2023/04/22 04:56:41;;;;;;;24.80;22.83;;;;;;;-142.25;100.00;58004.16;4928079;29;20275;-67
2023/04/22 04:59:08;;;;;;;21.17;19.47;;;;;;;-142.25;100.00;58004.16;4905062;29;20382;-66
2023/04/22 05:01:34;;;;;;;18.97;17.47;;;;;;;-142.25;100.00;58004.16;4927545;29;20309;-66
2023/04/22 05:04:05;;;;;;;20.03;18.43;;;;;;;-142.25;100.00;58004.16;4927184;29;20056;-65
2023/04/22 05:06:31;;;;;;;18.60;17.10;;;;;;;-142.25;100.00;58004.16;4926366;29;20304;-66
2023/04/22 05:09:02;;;;;;;23.37;21.53;;;;;;;-142.25;100.00;58004.16;4926455;29;20312;-66
2023/04/22 05:11:27;;;;;;;24.57;22.73;;;;;;;-142.25;100.00;58004.16;4924843;29;20774;-66
2023/04/22 05:13:55;;;;;;;18.97;17.50;;;;;;;-142.25;100.00;58004.16;4925222;28;20120;-66
2023/04/22 05:16:29;;;;;;;23.88;21.98;;;;;;;-142.25;100.00;58004.16;4907633;29;20303;-65
2023/04/22 05:18:55;;;;;;;20.47;18.90;;;;;;;-142.25;100.00;58004.16;4925434;29;20048;-65
2023/04/22 05:21:22;;;;;;;21.13;19.40;;;;;;;-142.25;100.00;58004.16;4911749;29;20312;-66
2023/04/22 05:23:48;;;;;;;22.70;20.97;;;;;;;-142.25;100.00;58004.16;4926076;29;20789;-66
2023/04/22 05:26:14;;;;;;;23.03;21.27;;;;;;;-142.25;100.00;58004.16;4927104;29;20501;-66
2023/04/22 05:28:41;;;;;;;21.83;20.17;;;;;;;-142.25;100.00;58004.16;4924405;29;20048;-66
2023/04/22 05:31:07;;;;;;;19.83;18.27;;;;;;;-142.25;100.00;58004.16;4910589;29;20834;-66
2023/04/22 05:33:34;;;;;;;22.77;20.90;;;;;;;-142.25;100.00;58004.16;4926306;29;20407;-66
2023/04/22 05:35:59;;;;;;;21.40;19.67;;;;;;;-142.25;100.00;58004.16;4912202;29;20071;-65
2023/04/22 05:38:25;;;;;;;22.93;20.73;;;;;;;-142.25;100.00;58004.16;4913572;29;20701;-66
2023/04/22 05:40:53;;;;;;;28.27;26.03;;;;;;;-142.25;100.00;58004.16;4924241;28;20043;-66
2023/04/22 05:43:19;;;;;;;20.10;18.50;;;;;;;-142.25;100.00;58004.16;4919228;29;20350;-64
2023/04/22 05:45:51;;;;;;;21.13;19.43;;;;;;;-142.25;100.00;58004.16;4921353;29;20056;-65
2023/04/22 05:48:17;;;;;;;21.53;19.80;;;;;;;-142.25;100.00;58004.16;4911572;29;20299;-64
2023/04/22 05:50:55;;;;;;;21.50;19.77;;;;;;;-142.25;100.00;58004.16;4930032;29;20086;-64
2023/04/22 05:53:22;;;;;;;30.87;22.70;;;;;;;-142.25;100.00;58004.16;4915338;29;20298;-65
2023/04/22 05:55:54;;;;;;;419.77;191.57;;;;;;;-142.25;100.00;58004.16;4906661;29;20280;-65
2023/04/22 05:58:20;;;;;;;451.48;263.02;;;;;;;-142.25;100.00;58004.16;4912989;29;20138;-65
2023/04/22 06:00:53;;;;;;;455.55;289.65;;;;;;;-142.25;100.00;58004.16;4929747;29;20566;-65
2023/04/22 06:03:38;;;;;;;337.10;212.68;;;;;;;-142.25;100.00;58004.16;4914881;29;20440;-65
2023/04/22 06:06:05;;;;;;;462.10;320.20;;;;;;;-142.25;100.00;58004.16;4929687;29;20051;-66
2023/04/22 06:08:31;;;;;;;468.17;337.17;;;;;;;-142.25;100.00;58004.16;4922347;29;20284;-65
2023/04/22 06:11:02;;;;;;;458.93;343.57;;;;;;;-142.25;100.00;58004.16;4928046;29;20279;-67
2023/04/22 06:13:34;;;;;;;453.33;324.25;;;;;;;-142.25;100.00;58004.16;4915647;29;20304;-66
2023/04/22 06:16:09;;;;;;;459.23;341.23;;;;;;;-142.25;100.00;58004.16;4927894;28;20051;-66
2023/04/22 06:18:36;;;;;;;464.67;357.73;;;;;;;-142.25;100.00;58004.16;4922658;29;20040;-67
2023/04/22 06:21:03;;;;;;;459.70;354.87;;;;;;;-142.25;100.00;58004.16;4929436;29;20307;-66
2023/04/22 06:23:29;;;;;;;462.30;360.73;;;;;;;-142.25;100.00;58004.16;4927039;29;20299;-66
2023/04/22 06:25:57;;;;;;;467.07;374.80;;;;;;;-142.25;100.00;58004.16;4915853;28;20956;-66
2023/04/22 06:28:23;;;;;;;465.80;377.93;;;;;;;-142.25;100.00;58004.16;4922900;29;20897;-67
2023/04/22 06:30:52;;;;;;;469.23;385.50;;;;;;;-142.25;100.00;58004.16;4919276;29;20310;-69
2023/04/22 06:33:17;;;;;;;468.37;389.40;;;;;;;-142.25;100.00;58004.16;4907405;29;20312;-62
2023/04/22 06:35:44;;;;;;;470.13;397.13;;;;;;;-142.25;100.00;58004.16;4926942;29;20624;-65
2023/04/22 06:38:09;;;;;;;469.90;394.30;;;;;;;-142.25;100.00;58004.16;4920872;29;20048;-65
2023/04/22 06:40:43;;;;;;;467.50;382.27;;;;;;;-142.25;100.00;58004.16;4929504;29;20312;-66
2023/04/22 06:43:15;;;;;;;474.43;411.83;;;;;;;-142.25;100.00;58004.16;4914364;29;20444;-65
2023/04/22 06:46:01;;;;;;;473.17;395.50;;;;;;;-142.25;100.00;58004.16;4909290;29;21043;-65
2023/04/22 06:48:47;;;;;;;477.10;419.43;;;;;;;-142.25;100.00;58004.16;4912916;29;20786;-64
2023/04/22 06:51:36;;;;;;;483.20;430.00;;;;;;;-142.25;100.00;58004.16;4928737;29;20288;-65
2023/04/22 06:54:03;;;;;;;486.13;432.83;;;;;;;-142.25;100.00;58004.16;4911686;29;20339;-65
2023/04/22 06:56:28;;;;;;;496.57;443.20;;;;;;;-142.25;100.00;58004.16;4928703;29;20138;-66
2023/04/22 06:58:54;;;;;;;505.93;452.47;;;;;;;-142.25;100.00;58004.16;4927891;29;20169;-65
2023/04/22 07:01:20;;;;;;;511.50;457.77;;;;;;;-142.25;100.00;58004.16;4928612;29;20095;-64
2023/04/22 07:03:46;;;;;;;512.10;458.53;;;;;;;-142.25;100.00;58004.16;4923117;29;20513;-64
2023/04/22 07:06:13;;;;;;;509.43;455.57;;;;;;;-142.25;100.00;58004.16;4914404;29;20102;-65
2023/04/22 07:08:39;;;;;;;534.37;480.47;;;;;;;-142.25;100.00;58004.16;4915138;29;20417;-65
2023/04/22 07:11:05;;;;;;;527.53;473.67;;;;;;;-142.25;100.00;58004.16;4914526;29;20239;-64
2023/04/22 07:13:38;;;;;;;554.30;499.20;;;;;;;-142.25;100.00;58004.16;4920687;29;20317;-65
2023/04/22 07:16:03;;;;;;;561.33;506.40;;;;;;;-142.25;100.00;58004.16;4927479;29;20399;-66
2023/04/22 07:18:29;;;;;;;576.70;521.30;;;;;;;-142.25;100.00;58004.16;4930059;29;20047;-65
2023/04/22 07:20:54;;;;;;;564.73;509.27;;;;;;;-142.25;100.00;58004.16;4929924;29;20040;-65
2023/04/22 07:23:20;;;;;;;571.43;516.30;;;;;;;-142.25;100.00;58004.16;4929155;29;20414;-63
2023/04/22 07:25:46;;;;;;;592.83;536.97;;;;;;;-142.25;100.00;58004.16;4928161;29;20511;-62
2023/04/22 07:28:11;;;;;;;595.37;539.40;;;;;;;-142.25;100.00;58004.16;4924037;29;20094;-65
2023/04/22 07:30:37;;;;;;;577.33;522.43;;;;;;;-142.25;100.00;58004.16;4927428;29;20074;-66
2023/04/22 07:33:03;;;;;;;518.17;464.77;;;;;;;-142.25;100.00;58004.16;4912314;28;20228;-67
2023/04/22 07:35:29;;;;;;;552.50;497.63;;;;;;;-142.25;100.00;58004.16;4912410;29;20049;-66
2023/04/22 07:37:55;;;;;;;598.50;542.10;;;;;;;-142.25;100.00;58004.16;4911921;29;20130;-67
2023/04/22 07:40:21;;;;;;;494.47;413.37;;;;;;;-142.25;100.00;58004.16;4914326;28;20296;-67
2023/04/22 07:42:46;;;;;;;560.60;505.30;;;;;;;-142.25;100.00;58004.16;4914247;29;20293;-67
2023/04/22 07:45:12;;;;;;;530.90;476.30;;;;;;;-142.25;100.00;58004.16;4913943;29;20071;-67
2023/04/22 07:47:38;;;;;;;484.90;406.20;;;;;;;-142.25;100.00;58004.16;4913655;29;20484;-68
2023/04/22 07:50:04;;;;;;;655.43;598.47;;;;;;;-142.25;100.00;58004.16;4915130;29;20052;-65
2023/04/22 07:52:30;;;;;;;640.07;583.50;;;;;;;-142.25;100.00;58004.16;4913395;29;20292;-66
2023/04/22 07:54:56;;;;;;;594.20;538.93;;;;;;;-142.25;100.00;58004.16;4913752;28;20743;-65
2023/04/22 07:57:22;;;;;;;569.97;515.33;;;;;;;-142.25;100.00;58004.16;4913758;28;20587;-65
2023/04/22 07:59:48;;;;;;;601.37;546.40;;;;;;;-142.25;100.00;58004.16;4913867;29;20296;-67
2023/04/22 08:02:14;;;;;;;636.37;580.07;;;;;;;-142.25;100.00;58004.16;4913105;29;20831;-67
2023/04/22 08:04:40;;;;;;;686.70;628.90;;;;;;;-142.25;100.00;58004.16;4913275;29;20280;-65
2023/04/22 08:07:05;;;;;;;670.17;613.07;;;;;;;-142.25;100.00;58004.16;4911628;29;20047;-67
2023/04/22 08:09:31;;;;;;;665.40;607.83;;;;;;;-142.25;100.00;58004.16;4911877;29;20052;-65
2023/04/22 08:11:57;;;;;;;641.30;585.00;;;;;;;-142.25;100.00;58004.16;4912958;29;20052;-66
2023/04/22 08:14:23;;;;;;;652.87;596.20;;;;;;;-142.25;100.00;58004.16;4920640;29;20043;-66
2023/04/22 08:16:52;;;;;;;675.83;618.73;;;;;;;-142.25;100.00;58004.16;4911937;29;20710;-66
2023/04/22 08:19:19;;;;;;;668.70;611.30;;;;;;;-142.25;100.00;58004.16;4911565;29;20326;-66
2023/04/22 08:21:45;;;;;;;671.33;614.03;;;;;;;-142.25;100.00;58004.16;4913504;29;20387;-66
2023/04/22 08:24:11;;;;;;;692.97;635.20;;;;;;;-142.25;100.00;58004.16;4918584;29;20298;-66
2023/04/22 08:26:38;;;;;;;688.90;631.50;;;;;;;-142.25;100.00;58004.16;4925903;29;20299;-66
2023/04/22 08:29:04;;;;;;;694.17;636.63;;;;;;;-142.25;100.00;58004.16;4913834;29;20060;-66
2023/04/22 08:31:30;;;;;;;709.67;651.13;;;;;;;-142.25;100.00;58004.16;4913585;29;20296;-66
2023/04/22 08:33:56;;;;;;;704.90;647.33;;;;;;;-142.25;100.00;58004.16;4912013;29;20351;-66
2023/04/22 08:36:24;;;;;;;713.37;655.23;;;;;;;-142.25;100.00;58004.16;4910338;29;20047;-66
2023/04/22 08:38:51;;;;;;;720.47;661.90;;;;;;;-142.25;100.00;58004.16;4910245;29;20480;-65
2023/04/22 08:41:18;;;;;;;721.87;663.27;;;;;;;-142.25;100.00;58004.16;4913300;29;20675;-66
2023/04/22 08:43:44;;;;;;;727.93;669.03;;;;;;;-142.25;100.00;58004.16;4913329;29;20048;-65
2023/04/22 08:46:11;;;;;;;741.30;682.47;;;;;;;-142.25;100.00;58004.16;4911398;29;20311;-66
2023/04/22 08:48:36;;;;;;;756.77;697.60;;;;;;;-142.25;100.00;58004.16;4911872;29;20377;-66
2023/04/22 08:51:02;;;;;;;755.57;696.57;;;;;;;-142.25;100.00;58004.16;4910874;29;20323;-66
2023/04/22 08:53:29;;;;;;;346.15;282.38;;;;;;;-142.25;100.00;58004.16;4910542;29;20520;-66
2023/04/22 08:55:56;;;;;;;436.47;348.43;;;;;;;-142.25;100.00;58004.16;4910294;29;20052;-65
2023/04/22 08:58:22;;;;;;;348.13;310.27;;;;;;;-142.25;100.00;58004.16;4909663;29;20387;-65
2023/04/22 09:00:49;;;;;;;604.23;549.40;;;;;;;-142.25;100.00;58004.16;4911584;29;20126;-64
2023/04/22 09:03:16;;;;;;;711.37;642.57;;;;;;;-142.25;100.00;58004.16;4912432;29;20556;-58
2023/04/22 09:05:44;;;;;;;785.33;723.47;;;;;;;-142.25;100.00;58004.16;4911510;29;20151;-63
2023/04/22 09:08:10;;;;;;;776.70;716.43;;;;;;;-142.25;100.00;58004.16;4912610;28;20047;-63
2023/04/22 09:10:37;;;;;;;785.23;724.90;;;;;;;-142.25;100.00;58004.16;4911875;29;20051;-66
2023/04/22 09:13:05;;;;;;;782.80;722.30;;;;;;;-142.25;100.00;58004.16;4911661;29;20071;-64
2023/04/22 09:15:31;;;;;;;789.97;729.20;;;;;;;-142.25;100.00;58004.16;4909131;29;20175;-64
2023/04/22 09:17:59;;;;;;;807.53;746.33;;;;;;;-142.25;100.00;58004.16;4915580;29;20551;-64
2023/04/22 09:20:27;;;;;;;827.30;764.90;;;;;;;-142.25;100.00;58004.16;4910594;29;20087;-64
2023/04/22 09:22:53;;;;;;;820.07;758.30;;;;;;;-142.25;100.00;58004.16;4909257;29;20036;-65
2023/04/22 09:25:24;;;;;;;819.13;757.43;;;;;;;-142.25;100.00;58004.16;4911595;29;20386;-65
2023/04/22 09:27:55;;;;;;;878.85;813.50;;;;;;;-142.25;100.00;58004.16;4924731;29;20454;-65
2023/04/22 09:30:28;;;;;;;837.23;775.73;;;;;;;-142.25;100.00;58004.16;4910589;29;20625;-67
2023/04/22 09:33:00;;;;;;;847.50;785.67;;;;;;;-142.25;100.00;58004.16;4910459;29;20082;-67
2023/04/22 09:35:34;;;;;;;767.37;708.67;;;;;;;-142.25;100.00;58004.16;4911558;29;20047;-63
2023/04/22 09:38:03;;;;;;;766.30;707.53;;;;;;;-142.25;100.00;58004.16;4920517;29;20087;-65
2023/04/22 09:40:30;;;;;;;824.83;764.13;;;;;;;-142.25;100.00;58004.16;4911998;29;20055;-66
2023/04/22 09:42:57;;;;;;;815.37;754.57;;;;;;;-142.25;100.00;58004.16;4911472;29;20043;-64
2023/04/22 09:45:26;;;;;;;833.73;772.83;;;;;;;-142.25;100.00;58004.16;4910035;29;20139;-67
2023/04/22 09:47:53;;;;;;;868.57;806.00;;;;;;;-142.25;100.00;58004.16;4912036;29;20040;-67
2023/04/22 09:50:20;;;;;;;876.07;813.37;;;;;;;-142.25;100.00;58004.16;4908471;29;20124;-69
2023/04/22 09:52:54;;;;;;;877.43;814.40;;;;;;;-142.25;100.00;58004.16;4911006;29;20044;-67
2023/04/22 09:55:22;;;;;;;887.90;824.47;;;;;;;-142.25;100.00;58004.16;4910498;29;20488;-64
2023/04/22 09:57:50;;;;;;;878.53;815.80;;;;;;;-142.25;100.00;58004.16;4911240;29;20048;-66
2023/04/22 10:00:17;;;;;;;7.55;5.30;;;;;;;-142.25;100.00;58004.16;4910127;29;20442;-64
2023/04/22 10:02:43;;;;;;;7.13;5.63;;;;;;;-142.25;100.00;58004.16;4912899;29;20563;-65
2023/04/22 10:05:10;;;;;;;5.80;5.18;;;;;;;-142.25;100.00;58004.16;4912481;29;20040;-66
2023/04/22 10:07:38;;;;;;;9.50;4.97;;;;;;;-142.25;100.00;58004.16;4910277;29;20043;-64
2023/04/22 10:10:07;;;;;;;7.90;5.50;;;;;;;-142.25;100.00;58004.16;4919630;29;20035;-63
2023/04/22 10:12:34;;;;;;;9.80;5.55;;;;;;;-142.25;100.00;58004.16;4906266;29;20055;-63
2023/04/22 10:15:01;;;;;;;5.93;5.00;;;;;;;-142.25;100.00;58004.16;4907839;29;20051;-63
2023/04/22 10:17:30;;;;;;;6.40;4.00;;;;;;;-142.25;100.00;58004.16;4911766;29;20049;-64
2023/04/22 10:19:59;;;;;;;12.35;5.35;;;;;;;-142.25;100.00;58004.16;4912203;28;20448;-63
2023/04/22 10:22:26;;;;;;;6.80;4.65;;;;;;;-142.25;100.00;58004.16;4910608;29;20039;-63
2023/04/22 10:24:54;;;;;;;11.18;5.40;;;;;;;-142.25;100.00;58004.16;4912936;28;20103;-63
2023/04/22 10:27:21;;;;;;;11.32;5.57;;;;;;;-142.25;100.00;58004.16;4911091;29;20051;-63
2023/04/22 10:29:47;;;;;;;6.82;4.10;;;;;;;-142.25;100.00;58004.16;4909682;29;20475;-63
2023/04/22 10:32:18;;;;;;;13.75;10.85;;;;;;;-142.25;100.00;58004.16;4915700;29;20028;-62
2023/04/22 10:34:48;;;;;;;11.23;4.28;;;;;;;-142.25;100.00;58004.16;4909572;29;20048;-63
2023/04/22 10:37:17;;;;;;;7.70;4.78;;;;;;;-142.25;100.00;58004.16;4913355;29;20040;-63
2023/04/22 10:40:07;;;;;;;5.05;4.07;;;;;;;-142.25;100.00;58004.16;4914089;29;20044;-63
2023/04/22 10:42:33;;;;;;;5.15;4.22;;;;;;;-142.25;100.00;58004.16;4914623;29;20044;-63
2023/04/22 10:45:01;;;;;;;9.27;5.80;;;;;;;-142.25;100.00;58004.16;4914658;28;20320;-63
2023/04/22 10:47:30;;;;;;;8.82;4.72;;;;;;;-142.25;100.00;58004.16;4914119;29;20063;-63
2023/04/22 10:50:12;;;;;;;5.78;4.63;;;;;;;-142.25;100.00;58004.16;4914590;29;20433;-63
2023/04/22 10:52:40;;;;;;;7.00;4.20;;;;;;;-142.25;100.00;58004.16;4914452;29;20103;-65